createdAt,value
2019-02-27T00:03:31.696Z,103263.77
2019-02-27T00:08:36.715Z,103257.44
2019-02-27T00:13:38.875Z,103260.41
2019-02-27T00:18:42.706Z,103261.27
2019-02-27T00:23:47.973Z,103256.86
2019-02-27T00:28:51.207Z,103251.91
2019-02-27T00:33:53.231Z,103249.36
2019-02-27T00:38:58.019Z,103246.52
2019-02-27T00:44:04.238Z,103242.55
2019-02-27T00:49:06.252Z,103243.22
2019-02-27T00:54:15.959Z,103231.17
2019-02-27T00:59:19.434Z,103224.16
2019-02-27T01:04:21.671Z,103215.77
2019-02-27T01:09:26.083Z,103210.42
2019-02-27T01:14:30.720Z,103200.98
2019-02-27T01:19:32.984Z,103196.16
2019-02-27T01:24:35.166Z,103186.58
2019-02-27T01:29:38.893Z,103181.16
2019-02-27T01:34:44.223Z,103180.77
2019-02-27T01:39:45.157Z,103169.88
2019-02-27T01:44:50.179Z,103161.46
2019-02-27T01:49:52.228Z,103156.97
2019-02-27T01:54:59.642Z,103158.28
2019-02-27T02:00:01.717Z,103141.54
2019-02-27T02:05:04.203Z,103143.58
2019-02-27T02:10:06.460Z,103127.16
2019-02-27T02:15:27.145Z,103127.83
2019-02-27T02:20:55.337Z,103124.33
2019-02-27T02:26:35.050Z,103112.64
2019-02-27T02:32:04.564Z,103109.28
2019-02-27T02:37:45.192Z,103104.37
2019-02-27T02:43:10.352Z,103101.64
2019-02-27T02:49:07.876Z,103092.60
2019-02-27T02:54:42.151Z,103086.89
2019-02-27T02:59:59.416Z,103073.60
2019-02-27T03:05:29.118Z,103075.47
2019-02-27T03:10:42.783Z,103068.75
2019-02-27T03:16:13.682Z,103070.72
2019-02-27T03:22:03.239Z,103066.78
2019-02-27T03:27:33.629Z,103057.34
2019-02-27T03:32:47.472Z,103049.20
2019-02-27T03:38:29.955Z,103039.17
2019-02-27T03:44:01.288Z,103041.34
2019-02-27T03:49:48.941Z,103031.80
2019-02-27T03:55:43.878Z,103017.41
2019-02-27T04:01:21.574Z,103006.89
2019-02-27T04:07:06.192Z,102993.09
2019-02-27T04:12:08.320Z,102992.51
2019-02-27T04:17:11.568Z,102983.67
2019-02-27T04:22:13.592Z,102981.95
2019-02-27T04:27:21.257Z,102979.98
2019-02-27T04:32:23.499Z,102972.87
2019-02-27T04:37:25.512Z,102970.46
2019-02-27T04:42:27.635Z,102964.75
2019-02-27T04:47:36.438Z,102957.59
2019-02-27T04:52:38.553Z,102958.11
2019-02-27T04:57:40.566Z,102956.41
2019-02-27T05:02:42.634Z,102958.28
2019-02-27T05:07:46.655Z,102961.06
2019-02-27T05:12:49.252Z,102955.53
2019-02-27T05:17:55.620Z,102953.95
2019-02-27T05:23:00.483Z,102951.53
2019-02-27T05:28:03.441Z,102954.41
2019-02-27T05:33:05.563Z,102951.25
2019-02-27T05:38:07.655Z,102950.12
2019-02-27T05:43:13.180Z,102957.47
2019-02-27T05:48:13.880Z,102957.19
2019-02-27T05:53:16.281Z,102961.57
2019-02-27T05:58:18.347Z,102960.89
2019-02-27T06:03:20.383Z,102960.25
2019-02-27T06:08:25.530Z,102958.09
2019-02-27T06:13:27.842Z,102954.43
2019-02-27T06:18:29.974Z,102947.28
2019-02-27T06:23:35.408Z,102942.04
2019-02-27T06:28:37.438Z,102942.84
2019-02-27T06:33:44.981Z,102936.41
2019-02-27T06:38:46.370Z,102930.55
2019-02-27T06:43:48.930Z,102932.80
2019-02-27T06:48:56.510Z,102924.66
2019-02-27T06:54:00.228Z,102930.00
2019-02-27T06:59:02.268Z,102926.66
2019-02-27T07:04:09.249Z,102915.28
2019-02-27T07:09:12.197Z,102919.42
2019-02-27T07:14:14.361Z,102917.12
2019-02-27T07:19:16.450Z,102911.50
2019-02-27T07:24:18.676Z,102916.25
2019-02-27T07:29:22.054Z,102918.68
2019-02-27T07:34:24.870Z,102914.61
2019-02-27T07:39:32.581Z,102915.19
2019-02-27T07:44:35.886Z,102918.31
2019-02-27T07:49:37.971Z,102921.02
2019-02-27T07:54:44.390Z,102929.02
2019-02-27T07:59:46.684Z,102921.20
2019-02-27T08:04:48.987Z,102921.59
2019-02-27T08:09:50.941Z,102921.59
2019-02-27T08:14:54.717Z,102905.20
2019-02-27T08:19:58.663Z,102907.52
2019-02-27T08:25:02.677Z,102906.42
2019-02-27T08:30:07.016Z,102902.66
2019-02-27T08:35:11.769Z,102906.84
2019-02-27T08:40:15.827Z,102901.41
2019-02-27T08:45:20.002Z,102898.95
2019-02-27T08:50:24.120Z,102893.73
2019-02-27T08:55:27.622Z,102895.12
2019-02-27T09:00:31.951Z,102882.06
2019-02-27T09:05:34.268Z,102877.72
2019-02-27T09:10:38.780Z,102873.69
2019-02-27T09:15:41.730Z,102865.63
2019-02-27T09:20:53.045Z,102851.96
2019-02-27T09:25:57.164Z,102841.41
2019-02-27T09:31:03.188Z,102840.56
2019-02-27T09:36:05.157Z,102847.12
2019-02-27T09:41:12.184Z,102846.08
2019-02-27T09:46:19.234Z,102841.65
2019-02-27T09:51:22.170Z,102832.87
2019-02-27T09:56:26.085Z,102827.13
2019-02-27T10:01:29.250Z,102822.47
2019-02-27T10:06:32.927Z,102807.90
2019-02-27T10:11:37.461Z,102801.67
2019-02-27T10:16:39.798Z,102789.88
2019-02-27T10:21:44.559Z,102776.44
2019-02-27T10:26:46.243Z,102776.86
2019-02-27T10:31:48.269Z,102778.91
2019-02-27T10:36:52.569Z,102776.00
2019-02-27T10:41:56.379Z,102782.14
2019-02-27T10:47:00.073Z,102779.74
2019-02-27T10:52:02.421Z,102784.39
2019-02-27T10:57:05.964Z,102770.11
2019-02-27T11:02:12.403Z,102763.67
2019-02-27T11:07:15.988Z,102758.06
2019-02-27T11:12:18.453Z,102743.89
2019-02-27T11:17:20.651Z,102730.64
2019-02-27T11:22:25.537Z,102723.20
2019-02-27T11:27:31.575Z,102701.53
2019-02-27T11:32:33.704Z,102701.53
2019-02-27T11:37:39.014Z,102705.50
2019-02-27T11:42:41.068Z,102695.69
2019-02-27T11:47:47.998Z,102692.19
2019-02-27T11:52:51.289Z,102683.06
2019-02-27T11:57:53.389Z,102677.13
2019-02-27T12:02:58.217Z,102664.99
2019-02-27T12:08:04.975Z,102665.57
2019-02-27T12:13:11.904Z,102650.67
2019-02-27T12:18:13.939Z,102633.48
2019-02-27T12:23:18.136Z,102621.23
2019-02-27T12:28:20.208Z,102617.98
2019-02-27T12:33:29.200Z,102595.34
2019-02-27T12:38:28.896Z,102590.44
2019-02-27T12:43:35.052Z,102584.70
2019-02-27T12:48:37.167Z,102586.84
2019-02-27T12:53:39.231Z,102577.22
2019-02-27T12:58:44.379Z,102565.69
2019-02-27T13:03:46.476Z,102557.29
2019-02-27T13:08:52.602Z,102552.44
2019-02-27T13:13:57.241Z,102549.75
2019-02-27T13:18:59.090Z,102541.20
2019-02-27T13:24:01.151Z,102534.39
2019-02-27T13:29:03.185Z,102535.30
2019-02-27T13:34:07.795Z,102521.16
2019-02-27T13:39:12.363Z,102525.20
2019-02-27T13:44:18.823Z,102508.48
2019-02-27T13:49:27.901Z,102511.02
2019-02-27T13:54:34.883Z,102503.61
2019-02-27T13:59:36.908Z,102490.63
2019-02-27T14:04:42.060Z,102492.05
2019-02-27T14:09:45.921Z,102474.98
2019-02-27T14:14:52.142Z,102478.61
2019-02-27T14:19:52.011Z,102473.44
2019-02-27T14:24:54.835Z,102469.98
2019-02-27T14:29:57.965Z,102457.06
2019-02-27T14:35:01.547Z,102449.12
2019-02-27T14:40:05.495Z,102437.89
2019-02-27T14:45:11.215Z,102432.42
2019-02-27T14:50:16.890Z,102425.75
2019-02-27T14:55:19.284Z,102427.70
2019-02-27T15:00:24.648Z,102414.90
2019-02-27T15:05:27.275Z,102420.53
2019-02-27T15:10:33.643Z,102417.77
2019-02-27T15:15:35.812Z,102425.34
2019-02-27T15:20:41.092Z,102411.70
2019-02-27T15:25:46.626Z,102406.83
2019-02-27T15:30:50.671Z,102392.72
2019-02-27T15:35:56.338Z,102392.98
2019-02-27T15:41:03.217Z,102366.02
2019-02-27T15:46:05.801Z,102364.90
2019-02-27T15:51:07.890Z,102356.09
2019-02-27T15:56:13.579Z,102343.36
2019-02-27T16:01:18.439Z,102342.47
2019-02-27T16:06:25.550Z,102339.08
2019-02-27T16:11:27.694Z,102332.09
2019-02-27T16:16:32.577Z,102325.84
2019-02-27T16:21:34.594Z,102319.22
2019-02-27T16:26:39.533Z,102316.33
2019-02-27T16:31:42.757Z,102305.96
2019-02-27T16:36:46.907Z,102295.21
2019-02-27T16:41:50.773Z,102292.67
2019-02-27T16:46:54.566Z,102294.84
2019-02-27T16:52:00.288Z,102287.03
2019-02-27T16:57:08.217Z,102284.27
2019-02-27T17:02:12.691Z,102284.27
2019-02-27T17:07:20.012Z,102287.56
2019-02-27T17:12:22.889Z,102267.36
2019-02-27T17:17:24.930Z,102267.36
2019-02-27T17:22:27.053Z,102277.36
2019-02-27T17:27:32.807Z,102279.91
2019-02-27T17:32:39.032Z,102274.02
2019-02-27T17:37:41.102Z,102270.66
2019-02-27T17:42:43.618Z,102264.91
2019-02-27T17:47:45.789Z,102254.96
2019-02-27T17:52:49.124Z,102254.96
2019-02-27T17:57:51.828Z,102251.69
2019-02-27T18:02:56.286Z,102247.09
2019-02-27T18:08:03.375Z,102245.89
2019-02-27T18:13:05.351Z,102244.44
2019-02-27T18:18:10.661Z,102239.63
2019-02-27T18:23:21.989Z,102240.97
2019-02-27T18:28:33.071Z,102238.67
2019-02-27T18:33:35.192Z,102241.20
2019-02-27T18:38:37.278Z,102244.73
2019-02-27T18:43:39.313Z,102244.73
2019-02-27T18:48:43.809Z,102242.05
2019-02-27T18:53:48.336Z,102234.39
2019-02-27T18:58:55.590Z,102229.27
2019-02-27T19:04:01.291Z,102226.35
2019-02-27T19:09:05.491Z,102230.34
2019-02-27T19:14:07.606Z,102218.58
2019-02-27T19:19:13.782Z,102222.51
2019-02-27T19:24:16.068Z,102212.44
2019-02-27T19:29:21.065Z,102205.41
2019-02-27T19:34:23.406Z,102212.04
2019-02-27T19:39:28.956Z,102212.75
2019-02-27T19:44:32.088Z,102205.95
2019-02-27T19:49:37.336Z,102207.51
2019-02-27T19:54:39.375Z,102211.28
2019-02-27T19:59:59.694Z,102201.28
2019-02-27T20:05:11.120Z,102197.69
2019-02-27T20:10:14.016Z,102200.47
2019-02-27T20:15:18.005Z,102192.35
2019-02-27T20:20:25.075Z,102200.69
2019-02-27T20:25:30.523Z,102200.50
2019-02-27T20:30:32.519Z,102190.26
2019-02-27T20:35:34.820Z,102193.69
2019-02-27T20:40:39.243Z,102196.58
2019-02-27T20:45:42.911Z,102189.19
2019-02-27T20:50:51.446Z,102185.40
2019-02-27T20:55:53.584Z,102171.61
2019-02-27T21:00:55.788Z,102163.53
2019-02-27T21:05:57.998Z,102160.29
2019-02-27T21:11:01.237Z,102155.83
2019-02-27T21:16:03.945Z,102154.52
2019-02-27T21:21:08.107Z,102148.25
2019-02-27T21:26:11.245Z,102150.41
2019-02-27T21:31:15.213Z,102142.05
2019-02-27T21:36:17.643Z,102123.68
2019-02-27T21:41:20.600Z,102123.95
2019-02-27T21:46:22.864Z,102120.00
2019-02-27T21:51:24.941Z,102102.62
2019-02-27T21:56:27.081Z,102096.41
2019-02-27T22:01:31.007Z,102082.34
2019-02-27T22:06:36.844Z,102079.56
2019-02-27T22:11:39.256Z,102064.94
2019-02-27T22:16:42.730Z,102083.50
2019-02-27T22:21:50.969Z,102075.27
2019-02-27T22:26:53.095Z,102066.77
2019-02-27T22:31:57.556Z,102071.28
2019-02-27T22:37:01.641Z,102067.09
2019-02-27T22:42:05.852Z,102057.14
2019-02-27T22:47:08.044Z,102056.23
2019-02-27T22:52:13.109Z,102046.27
2019-02-27T22:57:15.407Z,102046.85
2019-02-27T23:02:18.166Z,102046.38
2019-02-27T23:07:24.583Z,102040.75
2019-02-27T23:12:26.664Z,102046.44
2019-02-27T23:17:31.810Z,102048.44
2019-02-27T23:22:35.231Z,102047.27
2019-02-27T23:27:37.372Z,102045.08
2019-02-27T23:32:39.684Z,102041.10
2019-02-27T23:37:44.694Z,102038.98
2019-02-27T23:42:47.996Z,102031.06
2019-02-27T23:47:50.040Z,102027.09
2019-02-27T23:52:53.240Z,102026.96
2019-02-27T23:57:59.038Z,102021.27
